createdAt,value
2022-08-10T00:00:10.259Z,19.47
2022-08-10T00:02:38.684Z,19.57
2022-08-10T00:05:07.525Z,19.68
2022-08-10T00:07:35.336Z,19.60
2022-08-10T00:10:04.009Z,19.59
2022-08-10T00:12:53.761Z,19.47
2022-08-10T00:15:52.222Z,19.76
2022-08-10T00:18:11.348Z,19.87
2022-08-10T00:21:00.937Z,19.89
2022-08-10T00:23:30.401Z,19.74
2022-08-10T00:25:58.189Z,19.76
2022-08-10T00:28:25.940Z,19.58
2022-08-10T00:30:54.094Z,19.48
2022-08-10T00:33:22.280Z,19.52
2022-08-10T00:35:51.369Z,19.65
2022-08-10T00:38:21.036Z,19.35
2022-08-10T00:40:49.611Z,19.19
2022-08-10T00:43:23.667Z,19.17
2022-08-10T00:45:59.307Z,18.98
2022-08-10T00:48:31.102Z,18.93
2022-08-10T00:51:00.797Z,18.90
2022-08-10T00:53:29.516Z,18.78
2022-08-10T00:57:14.521Z,18.74
2022-08-10T00:58:47.328Z,18.70
2022-08-10T01:02:10.601Z,18.68
2022-08-10T01:04:40.237Z,18.56
2022-08-10T01:07:37.275Z,18.34
2022-08-10T01:10:42.346Z,18.46
2022-08-10T01:13:50.054Z,18.35
2022-08-10T01:16:41.172Z,18.41
2022-08-10T01:19:49.050Z,18.41
2022-08-10T01:23:25.128Z,18.41
2022-08-10T01:26:11.816Z,19.04
2022-08-10T01:30:01.202Z,18.70
2022-08-10T01:33:18.783Z,18.86
2022-08-10T01:36:18.649Z,18.67
2022-08-10T01:38:50.831Z,18.56
2022-08-10T01:41:46.665Z,18.93
2022-08-10T01:44:28.755Z,18.98
2022-08-10T01:47:29.976Z,18.48
2022-08-10T01:50:10.868Z,18.47
2022-08-10T01:52:43.243Z,18.20
2022-08-10T01:55:14.937Z,18.65
2022-08-10T01:57:47.823Z,18.29
2022-08-10T02:00:18.307Z,17.95
2022-08-10T02:02:48.880Z,17.75
2022-08-10T02:05:19.059Z,17.77
2022-08-10T02:07:48.952Z,17.92
2022-08-10T02:10:19.630Z,17.73
2022-08-10T02:12:48.160Z,17.68
2022-08-10T02:15:20.198Z,18.33
2022-08-10T02:18:01.821Z,18.58
2022-08-10T02:20:41.831Z,17.98
2022-08-10T02:23:40.408Z,17.31
2022-08-10T02:26:10.387Z,17.38
2022-08-10T02:28:40.001Z,17.44
2022-08-10T02:31:22.989Z,17.54
2022-08-10T02:33:57.208Z,17.24
2022-08-10T02:36:31.289Z,17.61
2022-08-10T02:39:05.966Z,17.77
2022-08-10T02:45:13.075Z,17.86
2022-08-10T02:45:23.631Z,18.19
2022-08-10T02:48:12.747Z,18.00
2022-08-10T02:50:51.341Z,18.17
2022-08-10T02:53:56.608Z,18.08
2022-08-10T02:56:59.052Z,18.03
2022-08-10T02:59:45.232Z,17.94
2022-08-10T03:02:44.114Z,17.82
2022-08-10T03:05:17.628Z,17.44
2022-08-10T03:08:23.084Z,17.71
2022-08-10T03:10:53.727Z,17.91
2022-08-10T03:13:24.860Z,17.83
2022-08-10T03:15:57.075Z,17.66
2022-08-10T03:18:26.105Z,17.74
2022-08-10T03:20:56.652Z,17.76
2022-08-10T03:23:26.227Z,17.48
2022-08-10T03:25:59.082Z,17.60
2022-08-10T03:28:33.430Z,17.56
2022-08-10T03:31:03.064Z,17.57
2022-08-10T03:33:38.229Z,17.51
2022-08-10T03:36:41.691Z,17.52
2022-08-10T03:39:00.035Z,17.57
2022-08-10T03:41:53.492Z,17.52
2022-08-10T03:44:33.300Z,17.54
2022-08-10T03:47:04.867Z,17.40
2022-08-10T03:49:49.230Z,17.56
2022-08-10T03:52:19.682Z,17.61
2022-08-10T03:54:51.694Z,17.48
2022-08-10T03:57:22.578Z,17.66
2022-08-10T03:59:52.314Z,17.65
2022-08-10T04:02:44.495Z,17.67
2022-08-10T04:05:09.196Z,17.70
2022-08-10T04:07:38.691Z,17.78
2022-08-10T04:10:13.043Z,17.84
2022-08-10T04:12:41.290Z,17.87
2022-08-10T04:15:09.883Z,17.83
2022-08-10T04:18:01.311Z,17.88
2022-08-10T04:21:03.790Z,17.95
2022-08-10T04:23:34.938Z,17.94
2022-08-10T04:26:02.721Z,17.99
2022-08-10T04:28:31.843Z,18.24
2022-08-10T04:31:02.799Z,18.18
2022-08-10T04:33:34.244Z,18.19
2022-08-10T04:36:07.049Z,18.01
2022-08-10T04:38:37.922Z,18.08
2022-08-10T04:41:07.913Z,18.36
2022-08-10T04:43:38.076Z,18.60
2022-08-10T04:46:08.864Z,18.59
2022-08-10T04:49:01.445Z,18.40
2022-08-10T04:51:31.640Z,18.69
2022-08-10T04:54:04.056Z,18.99
2022-08-10T04:56:39.687Z,19.04
2022-08-10T04:59:11.793Z,19.30
2022-08-10T05:02:29.067Z,19.61
2022-08-10T05:04:36.588Z,19.66
2022-08-10T05:07:16.579Z,19.73
2022-08-10T05:10:03.734Z,19.94
2022-08-10T05:12:38.718Z,20.13
2022-08-10T05:18:19.544Z,20.93
2022-08-10T05:20:50.287Z,22.82
2022-08-10T05:23:19.846Z,23.23
2022-08-10T05:25:48.322Z,23.24
2022-08-10T05:28:17.788Z,24.22
2022-08-10T05:30:47.357Z,25.46
2022-08-10T05:33:16.870Z,23.74
2022-08-10T05:35:56.536Z,22.27
2022-08-10T05:38:28.795Z,21.72
2022-08-10T05:40:58.621Z,23.00
2022-08-10T05:43:27.805Z,23.50
2022-08-10T05:46:19.209Z,24.16
2022-08-10T05:48:56.810Z,21.89
2022-08-10T05:51:30.323Z,23.28
2022-08-10T05:54:06.280Z,22.37
2022-08-10T05:56:55.132Z,22.25
2022-08-10T06:00:34.007Z,21.86
2022-08-10T06:02:41.202Z,22.24
2022-08-10T06:05:14.263Z,23.12
2022-08-10T06:08:00.581Z,22.97
2022-08-10T06:10:35.279Z,22.40
2022-08-10T06:13:34.504Z,22.77
2022-08-10T06:16:16.874Z,22.66
2022-08-10T06:18:47.411Z,22.91
2022-08-10T06:21:17.847Z,22.39
2022-08-10T06:23:49.010Z,22.33
2022-08-10T06:26:21.383Z,22.36
2022-08-10T06:29:07.415Z,22.27
2022-08-10T06:31:52.287Z,22.58
2022-08-10T06:34:39.135Z,22.83
2022-08-10T06:37:13.370Z,23.22
2022-08-10T06:39:44.823Z,23.45
2022-08-10T06:42:37.792Z,23.78
2022-08-10T06:45:14.151Z,24.10
2022-08-10T06:48:02.823Z,24.25
2022-08-10T06:50:44.874Z,24.79
2022-08-10T06:53:22.547Z,25.60
2022-08-10T06:56:12.641Z,24.54
2022-08-10T06:59:07.836Z,24.84
2022-08-10T07:01:52.400Z,26.08
2022-08-10T07:04:42.640Z,25.83
2022-08-10T07:07:20.797Z,25.28
2022-08-10T07:09:52.690Z,24.82
2022-08-10T07:12:22.877Z,24.72
2022-08-10T07:14:55.203Z,26.15
2022-08-10T07:17:27.333Z,26.63
2022-08-10T07:19:59.967Z,26.10
2022-08-10T07:23:55.639Z,26.37
2022-08-10T07:25:26.825Z,25.92
2022-08-10T07:28:01.851Z,25.32
2022-08-10T07:30:38.876Z,25.98
2022-08-10T07:33:10.823Z,26.55
2022-08-10T07:35:43.713Z,26.36
2022-08-10T07:38:27.172Z,25.89
2022-08-10T07:41:02.934Z,26.74
2022-08-10T07:43:39.467Z,25.84
2022-08-10T07:46:15.067Z,25.42
2022-08-10T07:48:58.429Z,25.82
2022-08-10T07:51:29.869Z,26.32
2022-08-10T07:54:06.040Z,26.16
2022-08-10T07:56:48.990Z,26.30
2022-08-10T07:59:28.681Z,26.74
2022-08-10T08:02:01.051Z,26.51
2022-08-10T08:04:31.451Z,27.69
2022-08-10T08:07:04.557Z,26.99
2022-08-10T08:09:38.479Z,25.83
2022-08-10T08:12:28.026Z,25.87
2022-08-10T08:15:00.883Z,26.82
2022-08-10T08:18:00.453Z,25.91
2022-08-10T08:20:31.194Z,26.14
2022-08-10T08:24:05.777Z,26.97
2022-08-10T08:25:52.461Z,26.36
2022-08-10T08:28:23.519Z,26.64
2022-08-10T08:30:54.624Z,27.28
2022-08-10T08:33:42.135Z,26.45
2022-08-10T08:36:18.955Z,27.26
2022-08-10T08:38:48.773Z,26.53
2022-08-10T08:41:46.480Z,27.79
2022-08-10T08:45:06.539Z,26.58
2022-08-10T08:48:19.526Z,26.55
2022-08-10T08:52:07.219Z,27.11
2022-08-10T08:54:48.757Z,27.04
2022-08-10T08:57:49.743Z,27.49
2022-08-10T09:01:02.630Z,27.38
2022-08-10T09:04:27.918Z,27.92
2022-08-10T09:08:06.631Z,28.73
2022-08-10T09:11:13.483Z,28.14
2022-08-10T09:14:05.430Z,27.73
2022-08-10T09:17:32.514Z,26.88
2022-08-10T09:21:09.384Z,27.29
2022-08-10T09:24:16.496Z,27.72
2022-08-10T09:26:53.789Z,28.06
2022-08-10T09:29:30.165Z,27.40
2022-08-10T09:36:14.702Z,28.31
2022-08-10T09:36:23.685Z,28.41
2022-08-10T09:40:56.506Z,27.43
2022-08-10T09:42:21.378Z,28.35
2022-08-10T09:45:27.789Z,28.28
2022-08-10T09:48:44.011Z,27.76
2022-08-10T09:51:51.545Z,28.20
2022-08-10T09:54:54.988Z,28.86
2022-08-10T09:58:38.517Z,28.20
2022-08-10T10:02:03.115Z,27.73
2022-08-10T10:05:11.240Z,28.40
2022-08-10T10:08:10.642Z,28.83
2022-08-10T10:11:04.974Z,28.61
2022-08-10T10:14:12.570Z,28.45
2022-08-10T10:17:03.557Z,29.74
2022-08-10T10:20:15.616Z,29.56
2022-08-10T10:23:02.936Z,28.59
2022-08-10T10:25:51.699Z,28.89
2022-08-10T10:29:15.345Z,28.24
2022-08-10T10:31:58.668Z,29.11
2022-08-10T10:35:16.699Z,28.65
2022-08-10T10:38:01.103Z,29.38
2022-08-10T10:40:53.565Z,28.94
2022-08-10T10:44:04.304Z,28.98
2022-08-10T10:47:05.283Z,29.52
2022-08-10T10:50:18.323Z,29.51
2022-08-10T10:53:19.379Z,29.76
2022-08-10T10:56:15.475Z,29.98
2022-08-10T10:59:56.181Z,29.25
2022-08-10T11:03:20.606Z,29.58
2022-08-10T11:06:39.795Z,29.40
2022-08-10T11:10:04.593Z,29.00
2022-08-10T11:14:24.801Z,30.10
2022-08-10T11:16:21.232Z,30.01
2022-08-10T11:19:15.258Z,29.54
2022-08-10T11:22:36.712Z,29.14
2022-08-10T11:25:27.941Z,30.11
2022-08-10T11:28:31.491Z,29.73
2022-08-10T11:31:40.647Z,29.24
2022-08-10T11:34:48.540Z,29.62
2022-08-10T11:38:29.809Z,29.03
2022-08-10T11:42:12.441Z,29.85
2022-08-10T11:45:02.616Z,30.57
2022-08-10T11:47:54.586Z,30.62
2022-08-10T11:50:44.551Z,28.24
2022-08-10T11:53:53.608Z,28.99
2022-08-10T11:56:51.247Z,29.34
2022-08-10T11:59:58.129Z,29.51
2022-08-10T12:02:47.390Z,28.72
2022-08-10T12:05:51.786Z,29.75
2022-08-10T12:10:04.279Z,30.22
2022-08-10T12:11:24.160Z,30.44
2022-08-10T12:14:39.256Z,28.52
2022-08-10T12:17:29.615Z,27.78
2022-08-10T12:20:23.815Z,28.81
2022-08-10T12:23:12.610Z,29.88
2022-08-10T12:26:07.713Z,29.88
2022-08-10T12:29:25.493Z,29.08
2022-08-10T12:32:08.435Z,28.10
2022-08-10T12:34:51.872Z,28.26
2022-08-10T12:38:08.644Z,28.32
2022-08-10T12:40:56.330Z,29.53
2022-08-10T12:44:05.777Z,29.75
2022-08-10T12:47:14.340Z,30.34
2022-08-10T12:50:33.397Z,29.66
2022-08-10T12:53:51.492Z,29.48
2022-08-10T12:56:35.728Z,29.20
2022-08-10T12:59:11.761Z,29.10
2022-08-10T13:02:07.438Z,29.36
2022-08-10T13:04:38.893Z,30.11
2022-08-10T13:07:10.295Z,29.85
2022-08-10T13:10:14.474Z,29.01
2022-08-10T13:12:49.435Z,29.32
2022-08-10T13:15:49.336Z,30.04
2022-08-10T13:18:34.014Z,30.04
2022-08-10T13:21:20.473Z,28.87
2022-08-10T13:24:12.047Z,28.56
2022-08-10T13:27:25.833Z,28.06
2022-08-10T13:30:03.447Z,27.82
2022-08-10T13:32:37.180Z,27.79
2022-08-10T13:35:17.731Z,28.70
2022-08-10T13:37:49.333Z,29.84
2022-08-10T13:40:21.777Z,29.31
2022-08-10T13:42:53.577Z,29.57
2022-08-10T13:45:26.224Z,29.78
2022-08-10T13:48:18.026Z,28.74
2022-08-10T13:50:51.680Z,28.53
2022-08-10T13:53:23.403Z,29.02
2022-08-10T13:55:59.021Z,29.46
2022-08-10T13:58:37.655Z,29.55
2022-08-10T14:01:31.700Z,29.54
2022-08-10T14:04:06.223Z,29.78
2022-08-10T14:06:36.526Z,29.58
2022-08-10T14:09:12.383Z,29.07
2022-08-10T14:11:44.092Z,29.01
2022-08-10T14:14:20.885Z,28.65
2022-08-10T14:16:52.007Z,29.59
2022-08-10T14:19:32.986Z,29.41
2022-08-10T14:22:01.780Z,29.57
2022-08-10T14:24:33.869Z,29.88
2022-08-10T14:27:12.354Z,29.54
2022-08-10T14:29:55.129Z,29.53
2022-08-10T14:32:30.856Z,29.90
2022-08-10T14:36:21.385Z,29.91
2022-08-10T14:38:10.033Z,30.18
2022-08-10T14:40:53.053Z,29.46
2022-08-10T14:43:30.130Z,30.01
2022-08-10T14:46:08.282Z,30.06
2022-08-10T14:48:43.927Z,29.40
2022-08-10T14:51:19.221Z,29.15
2022-08-10T14:54:02.200Z,29.39
2022-08-10T14:56:35.088Z,29.67
2022-08-10T14:59:07.738Z,29.13
2022-08-10T15:02:00.992Z,29.20
2022-08-10T15:04:37.303Z,29.59
2022-08-10T15:07:29.814Z,29.26
2022-08-10T15:10:03.937Z,29.84
2022-08-10T15:12:38.879Z,28.83
2022-08-10T15:15:16.587Z,28.74
2022-08-10T15:17:57.377Z,28.93
2022-08-10T15:20:31.421Z,29.04
2022-08-10T15:23:29.844Z,28.71
2022-08-10T15:26:11.209Z,28.95
2022-08-10T15:29:23.448Z,29.04
2022-08-10T15:32:00.214Z,28.79
2022-08-10T15:34:53.564Z,28.05
2022-08-10T15:37:47.367Z,27.88
2022-08-10T15:40:30.677Z,28.41
2022-08-10T15:43:29.110Z,28.35
2022-08-10T15:46:30.171Z,28.44
2022-08-10T15:49:11.769Z,28.30
2022-08-10T15:52:39.858Z,28.04
2022-08-10T15:55:43.845Z,28.13
2022-08-10T15:58:52.264Z,27.46
2022-08-10T16:02:14.856Z,27.94
2022-08-10T16:05:13.408Z,27.51
2022-08-10T16:07:51.740Z,28.29
2022-08-10T16:10:39.041Z,28.19
2022-08-10T16:13:59.708Z,27.77
2022-08-10T16:16:14.544Z,27.77
2022-08-10T16:18:46.550Z,27.64
2022-08-10T16:21:23.619Z,27.72
2022-08-10T16:24:15.278Z,27.11
2022-08-10T16:26:52.862Z,26.82
2022-08-10T16:29:26.420Z,27.01
2022-08-10T16:32:04.404Z,27.04
2022-08-10T16:34:38.222Z,27.09
2022-08-10T16:37:15.425Z,27.35
2022-08-10T16:39:57.887Z,27.23
2022-08-10T16:42:44.967Z,27.16
2022-08-10T16:45:28.212Z,27.08
2022-08-10T16:47:59.966Z,27.03
2022-08-10T16:50:55.148Z,27.18
2022-08-10T16:53:27.071Z,27.02
2022-08-10T16:56:02.136Z,26.85
2022-08-10T16:58:44.386Z,26.87
2022-08-10T17:01:22.092Z,26.95
2022-08-10T17:04:06.173Z,26.82
2022-08-10T17:06:58.773Z,26.79
2022-08-10T17:09:33.324Z,26.88
2022-08-10T17:12:13.706Z,26.70
2022-08-10T17:14:44.751Z,26.55
2022-08-10T17:17:33.363Z,26.74
2022-08-10T17:20:32.049Z,26.45
2022-08-10T17:23:06.729Z,26.40
2022-08-10T17:25:49.133Z,26.26
2022-08-10T17:28:35.200Z,26.08
2022-08-10T17:31:27.816Z,26.05
2022-08-10T17:34:27.235Z,25.79
2022-08-10T17:37:11.478Z,26.10
2022-08-10T17:40:15.353Z,25.89
2022-08-10T17:42:48.244Z,25.54
2022-08-10T17:45:48.400Z,25.38
2022-08-10T17:48:30.555Z,25.21
2022-08-10T17:51:02.616Z,24.94
2022-08-10T17:53:51.694Z,24.89
2022-08-10T17:56:23.392Z,24.94
2022-08-10T17:59:04.043Z,24.88
2022-08-10T18:01:38.420Z,25.01
2022-08-10T18:04:18.868Z,24.79
2022-08-10T18:06:59.322Z,24.92
2022-08-10T18:09:51.927Z,24.70
2022-08-10T18:12:39.170Z,24.69
2022-08-10T18:15:14.096Z,24.58
2022-08-10T18:17:55.476Z,24.42
2022-08-10T18:20:37.225Z,24.47
2022-08-10T18:23:08.813Z,24.39
2022-08-10T18:25:41.926Z,24.38
2022-08-10T18:28:19.469Z,24.30
2022-08-10T18:30:53.163Z,24.21
2022-08-10T18:33:42.304Z,24.42
2022-08-10T18:36:13.900Z,24.17
2022-08-10T18:38:50.126Z,24.03
2022-08-10T18:42:00.185Z,24.08
2022-08-10T18:45:16.294Z,23.84
2022-08-10T18:48:07.407Z,24.13
2022-08-10T18:50:53.215Z,24.04
2022-08-10T18:53:51.071Z,23.71
2022-08-10T18:56:29.503Z,23.81
2022-08-10T18:59:32.835Z,23.72
2022-08-10T19:02:56.015Z,23.64
2022-08-10T19:05:53.263Z,23.63
2022-08-10T19:08:50.189Z,23.51
2022-08-10T19:11:56.002Z,23.52
2022-08-10T19:14:37.748Z,23.29
2022-08-10T19:18:03.391Z,23.25
2022-08-10T19:21:08.477Z,23.09
2022-08-10T19:24:35.171Z,22.90
2022-08-10T19:27:33.230Z,23.08
2022-08-10T19:30:15.584Z,22.94
2022-08-10T19:33:27.615Z,22.72
2022-08-10T19:36:43.705Z,22.58
2022-08-10T19:40:44.053Z,22.57
2022-08-10T19:43:59.943Z,22.37
2022-08-10T19:47:07.352Z,22.38
2022-08-10T19:50:18.314Z,22.21
2022-08-10T19:53:08.867Z,22.22
2022-08-10T19:56:34.231Z,21.91
2022-08-10T20:00:15.247Z,21.91
2022-08-10T20:02:31.405Z,21.95
2022-08-10T20:05:26.589Z,22.04
2022-08-10T20:08:20.256Z,21.84
2022-08-10T20:11:46.462Z,21.75
2022-08-10T20:14:32.629Z,21.73
2022-08-10T20:17:13.607Z,21.78
2022-08-10T20:20:05.880Z,21.63
2022-08-10T20:22:51.965Z,21.70
2022-08-10T20:25:32.401Z,22.04
2022-08-10T20:28:32.259Z,22.17
2022-08-10T20:31:20.116Z,22.11
2022-08-10T20:34:38.564Z,22.20
2022-08-10T20:37:45.316Z,22.12
2022-08-10T20:41:12.343Z,22.07
2022-08-10T20:44:03.416Z,22.16
2022-08-10T20:47:12.473Z,22.08
2022-08-10T20:50:27.388Z,22.06
2022-08-10T20:53:02.197Z,21.95
2022-08-10T20:55:54.334Z,22.10
2022-08-10T20:58:41.484Z,21.92
2022-08-10T21:02:06.708Z,21.74
2022-08-10T21:04:42.434Z,21.76
2022-08-10T21:08:26.824Z,21.60
2022-08-10T21:11:22.369Z,21.68
2022-08-10T21:14:55.216Z,21.47
2022-08-10T21:18:10.734Z,21.86
2022-08-10T21:24:32.357Z,21.08
2022-08-10T21:25:42.244Z,21.38
2022-08-10T21:27:40.821Z,20.89
2022-08-10T21:30:17.865Z,20.87
2022-08-10T21:33:07.522Z,21.21
2022-08-10T21:35:57.404Z,21.27
2022-08-10T21:39:14.190Z,21.14
2022-08-10T21:42:16.937Z,20.06
2022-08-10T21:45:59.901Z,19.76
2022-08-10T21:49:24.260Z,19.32
2022-08-10T21:53:04.482Z,19.32
2022-08-10T21:56:20.473Z,19.37
2022-08-10T21:59:27.118Z,19.12
2022-08-10T22:02:22.906Z,18.92
2022-08-10T22:05:22.520Z,18.89
2022-08-10T22:08:16.876Z,19.16
2022-08-10T22:11:13.999Z,19.17
2022-08-10T22:14:09.566Z,18.62
2022-08-10T22:17:06.502Z,18.60
2022-08-10T22:20:29.160Z,18.89
2022-08-10T22:24:16.563Z,18.51
2022-08-10T22:27:47.042Z,18.31
2022-08-10T22:31:28.000Z,18.80
2022-08-10T22:34:52.071Z,18.96
2022-08-10T22:39:05.096Z,18.71
2022-08-10T22:42:20.888Z,18.17
2022-08-10T22:45:12.458Z,18.13
2022-08-10T22:47:58.628Z,18.54
2022-08-10T22:50:28.393Z,18.35
2022-08-10T22:53:07.143Z,18.34
2022-08-10T22:56:00.013Z,18.04
2022-08-10T22:58:48.129Z,17.96
2022-08-10T23:01:40.905Z,17.97
2022-08-10T23:04:39.218Z,17.98
2022-08-10T23:07:18.154Z,18.09
2022-08-10T23:09:54.454Z,18.34
2022-08-10T23:12:43.872Z,18.62
2022-08-10T23:16:02.062Z,18.28
2022-08-10T23:18:59.160Z,18.24
2022-08-10T23:22:04.140Z,17.82
2022-08-10T23:25:02.869Z,18.43
2022-08-10T23:27:37.667Z,17.89
2022-08-10T23:30:18.115Z,18.28
2022-08-10T23:32:52.949Z,17.77
2022-08-10T23:36:31.078Z,17.73
2022-08-10T23:38:22.235Z,17.34
2022-08-10T23:40:56.561Z,17.53
2022-08-10T23:44:03.205Z,17.37
2022-08-10T23:46:38.958Z,17.16
2022-08-10T23:49:11.517Z,16.71
2022-08-10T23:51:56.416Z,16.57
2022-08-10T23:54:25.920Z,16.89
2022-08-10T23:57:01.054Z,16.74
2022-08-10T23:59:32.086Z,17.62
